Time;durP1;ratioP1;P1;durP2;ratioP2;P2;SDS_P1;SDS_P2;PMS_P1;PMS_P2;Temp;Humidity;BMP_temperature;BMP_pressure;BME280_temperature;BME280_humidity;BME280_pressure;Samples;Min_cycle;Max_cycle;Signal;HPM_P1;HPM_P2
2022/06/28 00:00:45;;;;;;;11.37;6.97;;;;;;;;;;4946089;28;20206;-76
2022/06/28 00:03:12;;;;;;;12.77;7.43;;;;;;;;;;4946494;28;20600;-76
2022/06/28 00:05:39;;;;;;;13.13;7.80;;;;;;;;;;4943687;28;20249;-75
2022/06/28 00:08:06;;;;;;;12.97;7.70;;;;;;;;;;4948019;28;20213;-75
2022/06/28 00:10:35;;;;;;;10.47;7.60;;;;;;;;;;4947917;28;20214;-77
2022/06/28 00:13:02;;;;;;;16.40;7.90;;;;;;;;;;4947729;28;20293;-76
2022/06/28 00:18:14;;;;;;;17.83;7.90;;;;;;;;;;4948859;28;20837;-77
2022/06/28 00:20:41;;;;;;;15.10;8.17;;;;;;;;;;4946157;28;20302;-77
2022/06/28 00:23:08;;;;;;;16.90;8.30;;;;;;;;;;4944742;28;20210;-76
2022/06/28 00:25:37;;;;;;;15.33;8.63;;;;;;;;;;4947218;28;20314;-76
2022/06/28 00:28:04;;;;;;;16.20;8.90;;;;;;;;;;4943827;28;20211;-77
2022/06/28 00:30:31;;;;;;;16.97;9.13;;;;;;;;;;4944422;28;20202;-76
2022/06/28 00:32:59;;;;;;;15.93;9.00;;;;;;;;;;4946372;28;20755;-76
2022/06/28 00:35:26;;;;;;;17.03;10.27;;;;;;;;;;4946999;28;20223;-75
2022/06/28 00:37:53;;;;;;;16.70;9.87;;;;;;;;;;4939165;28;20213;-75
2022/06/28 00:40:20;;;;;;;17.30;10.20;;;;;;;;;;4948480;28;20211;-76
2022/06/28 00:42:49;;;;;;;20.00;11.83;;;;;;;;;;4944337;28;20227;-76
2022/06/28 00:45:16;;;;;;;20.07;10.50;;;;;;;;;;4944593;28;20223;-75
2022/06/28 00:47:43;;;;;;;16.00;9.67;;;;;;;;;;4944276;28;20410;-77
2022/06/28 00:50:11;;;;;;;21.37;10.87;;;;;;;;;;4944084;28;20216;-77
2022/06/28 00:52:53;;;;;;;20.00;10.47;;;;;;;;;;4940959;28;20562;-75
2022/06/28 00:55:20;;;;;;;19.70;10.43;;;;;;;;;;4946137;28;20783;-77
2022/06/28 00:57:49;;;;;;;17.17;10.97;;;;;;;;;;4944409;28;20207;-77
2022/06/28 01:00:16;;;;;;;17.43;10.50;;;;;;;;;;4945104;28;20222;-76
2022/06/28 01:02:43;;;;;;;17.10;9.93;;;;;;;;;;4938454;28;20237;-77
2022/06/28 01:05:10;;;;;;;22.10;10.23;;;;;;;;;;4943327;28;20222;-77
2022/06/28 01:07:38;;;;;;;24.13;11.23;;;;;;;;;;4941451;28;20295;-77
2022/06/28 01:10:05;;;;;;;18.70;10.00;;;;;;;;;;4944101;28;20213;-77
2022/06/28 01:12:32;;;;;;;21.47;11.60;;;;;;;;;;4945363;28;20198;-75
2022/06/28 01:15:01;;;;;;;17.73;10.27;;;;;;;;;;4941801;28;20230;-76
2022/06/28 01:17:29;;;;;;;17.60;10.07;;;;;;;;;;4943258;28;20314;-77
2022/06/28 01:19:56;;;;;;;16.27;9.57;;;;;;;;;;4944034;28;20293;-77
2022/06/28 01:22:23;;;;;;;17.03;9.83;;;;;;;;;;4942043;28;20313;-76
2022/06/28 01:24:52;;;;;;;15.47;8.93;;;;;;;;;;4943385;28;20230;-76
2022/06/28 01:27:19;;;;;;;20.20;11.07;;;;;;;;;;4946936;28;20298;-76
2022/06/28 01:29:46;;;;;;;21.60;11.17;;;;;;;;;;4944918;28;20218;-75
2022/06/28 01:32:14;;;;;;;17.73;9.60;;;;;;;;;;4947304;28;20203;-76
2022/06/28 01:34:41;;;;;;;20.80;10.17;;;;;;;;;;4949112;28;20321;-77
2022/06/28 01:37:09;;;;;;;22.43;8.77;;;;;;;;;;4946861;28;20210;-76
2022/06/28 01:39:36;;;;;;;15.53;9.37;;;;;;;;;;4944382;28;20206;-76
2022/06/28 01:42:05;;;;;;;14.97;8.80;;;;;;;;;;4943701;28;20231;-76
2022/06/28 01:44:33;;;;;;;15.07;9.00;;;;;;;;;;4943288;28;20222;-73
2022/06/28 01:47:01;;;;;;;18.17;9.17;;;;;;;;;;4942649;28;20199;-77
2022/06/28 01:49:28;;;;;;;18.50;10.00;;;;;;;;;;4944886;28;20209;-76
2022/06/28 01:51:55;;;;;;;26.93;10.13;;;;;;;;;;4943567;28;20230;-75
2022/06/28 01:54:22;;;;;;;19.00;9.83;;;;;;;;;;4942652;28;20229;-75
2022/06/28 01:56:50;;;;;;;18.30;9.63;;;;;;;;;;4942857;28;20213;-75
2022/06/28 01:59:18;;;;;;;15.17;9.60;;;;;;;;;;4942666;28;20290;-75
2022/06/28 02:01:45;;;;;;;15.47;10.00;;;;;;;;;;4939626;28;20238;-74
2022/06/28 02:04:19;;;;;;;16.60;9.87;;;;;;;;;;4944461;28;20222;-76
2022/06/28 02:06:46;;;;;;;19.43;9.43;;;;;;;;;;4941561;28;20214;-76
2022/06/28 02:09:13;;;;;;;18.57;10.93;;;;;;;;;;4940576;28;20203;-76
2022/06/28 02:11:41;;;;;;;23.93;12.20;;;;;;;;;;4942615;28;20199;-77
2022/06/28 02:14:08;;;;;;;22.20;9.83;;;;;;;;;;4941047;28;20230;-75
2022/06/28 02:16:37;;;;;;;14.93;8.70;;;;;;;;;;4944832;28;20199;-74
2022/06/28 02:19:04;;;;;;;14.83;9.40;;;;;;;;;;4941858;28;20682;-76
2022/06/28 02:21:36;;;;;;;21.23;8.93;;;;;;;;;;4941841;28;20213;-75
2022/06/28 02:24:03;;;;;;;16.57;9.30;;;;;;;;;;4941674;28;20223;-76
2022/06/28 02:26:32;;;;;;;15.87;8.87;;;;;;;;;;4940820;28;20214;-76
2022/06/28 02:28:59;;;;;;;15.10;8.80;;;;;;;;;;4943579;28;20571;-76
2022/06/28 02:31:26;;;;;;;14.03;8.57;;;;;;;;;;4944177;28;20203;-77
2022/06/28 02:33:55;;;;;;;17.47;8.27;;;;;;;;;;4941963;28;20615;-76
2022/06/28 02:41:52;;;;;;;18.53;10.57;;;;;;;;;;4916299;28;20712;-77
2022/06/28 02:44:19;;;;;;;17.33;9.10;;;;;;;;;;4945538;28;20234;-77
2022/06/28 02:46:46;;;;;;;19.13;8.87;;;;;;;;;;4948433;28;20209;-77
2022/06/28 02:49:15;;;;;;;13.47;8.50;;;;;;;;;;4942465;28;20245;-75
2022/06/28 02:51:42;;;;;;;18.67;8.87;;;;;;;;;;4942541;28;20214;-75
2022/06/28 02:54:09;;;;;;;21.27;9.27;;;;;;;;;;4944292;28;20259;-76
2022/06/28 02:56:37;;;;;;;15.57;9.27;;;;;;;;;;4944270;28;20207;-76
2022/06/28 02:59:05;;;;;;;16.43;9.30;;;;;;;;;;4942936;28;20203;-76
2022/06/28 03:01:32;;;;;;;15.83;8.33;;;;;;;;;;4941377;28;20217;-75
2022/06/28 03:03:59;;;;;;;13.43;8.30;;;;;;;;;;4942008;28;20265;-77
2022/06/28 03:06:28;;;;;;;17.83;9.10;;;;;;;;;;4940671;28;20214;-76
2022/06/28 03:08:55;;;;;;;17.07;9.70;;;;;;;;;;4942324;28;20213;-76
2022/06/28 03:11:22;;;;;;;21.93;10.80;;;;;;;;;;4937296;28;20218;-74
2022/06/28 03:13:49;;;;;;;17.20;10.60;;;;;;;;;;4944069;28;20743;-77
2022/06/28 03:16:16;;;;;;;19.47;10.17;;;;;;;;;;4943397;28;20767;-75
2022/06/28 03:18:43;;;;;;;19.80;11.20;;;;;;;;;;4942066;28;20298;-76
2022/06/28 03:21:10;;;;;;;18.90;10.10;;;;;;;;;;4943519;28;20202;-75
2022/06/28 03:23:39;;;;;;;21.70;10.27;;;;;;;;;;4942936;28;20227;-76
2022/06/28 03:26:06;;;;;;;16.47;10.20;;;;;;;;;;4944577;28;20209;-77
2022/06/28 03:28:33;;;;;;;18.20;10.17;;;;;;;;;;4941790;28;20333;-77
2022/06/28 03:31:00;;;;;;;21.50;9.70;;;;;;;;;;4938338;28;20211;-74
2022/06/28 03:33:27;;;;;;;16.37;9.40;;;;;;;;;;4939611;28;20327;-76
2022/06/28 03:35:55;;;;;;;17.13;10.63;;;;;;;;;;4941333;28;20662;-75
2022/06/28 03:38:22;;;;;;;14.50;8.73;;;;;;;;;;4943966;28;20302;-75
2022/06/28 03:40:50;;;;;;;19.37;9.93;;;;;;;;;;4939308;28;20247;-74
2022/06/28 03:43:17;;;;;;;18.70;10.80;;;;;;;;;;4940178;28;20650;-75
2022/06/28 03:45:44;;;;;;;19.73;11.20;;;;;;;;;;4940958;28;20217;-76
2022/06/28 03:48:12;;;;;;;16.47;9.37;;;;;;;;;;4943495;28;20214;-75
2022/06/28 03:50:39;;;;;;;15.87;9.23;;;;;;;;;;4944861;28;20552;-76
2022/06/28 03:53:06;;;;;;;20.10;9.60;;;;;;;;;;4942212;28;20226;-75
2022/06/28 03:55:36;;;;;;;16.03;9.27;;;;;;;;;;4943200;28;20638;-77
2022/06/28 03:58:05;;;;;;;18.60;9.00;;;;;;;;;;4940573;28;20207;-74
2022/06/28 04:00:32;;;;;;;15.57;9.73;;;;;;;;;;4939094;28;20222;-76
2022/06/28 04:03:00;;;;;;;21.20;10.47;;;;;;;;;;4939252;28;20596;-76
2022/06/28 04:05:27;;;;;;;26.87;12.97;;;;;;;;;;4940466;28;20231;-75
2022/06/28 04:07:54;;;;;;;25.20;13.27;;;;;;;;;;4939433;28;20342;-75
2022/06/28 04:10:21;;;;;;;31.13;13.53;;;;;;;;;;4941657;28;20226;-75
2022/06/28 04:12:49;;;;;;;23.30;12.40;;;;;;;;;;4941511;28;20222;-75
2022/06/28 04:15:17;;;;;;;30.87;13.63;;;;;;;;;;4940721;28;20230;-76
2022/06/28 04:17:44;;;;;;;29.87;13.60;;;;;;;;;;4943484;28;20206;-75
2022/06/28 04:20:12;;;;;;;29.60;12.73;;;;;;;;;;4945647;28;20592;-75
2022/06/28 04:22:39;;;;;;;29.60;14.43;;;;;;;;;;4945141;28;20223;-75
2022/06/28 04:25:07;;;;;;;29.63;13.63;;;;;;;;;;4941425;28;20257;-74
2022/06/28 04:27:34;;;;;;;29.80;14.50;;;;;;;;;;4940820;28;20293;-74
2022/06/28 04:30:03;;;;;;;31.07;14.80;;;;;;;;;;4943200;28;20575;-75
2022/06/28 04:32:31;;;;;;;35.00;15.07;;;;;;;;;;4941053;28;20658;-75
2022/06/28 04:34:59;;;;;;;39.00;16.47;;;;;;;;;;4946948;28;20732;-75
2022/06/28 04:37:26;;;;;;;40.17;17.33;;;;;;;;;;4942602;28;20203;-74
2022/06/28 04:39:53;;;;;;;36.80;17.20;;;;;;;;;;4938041;28;20218;-74
2022/06/28 04:42:20;;;;;;;30.90;15.37;;;;;;;;;;4946649;28;20713;-75
2022/06/28 04:44:47;;;;;;;41.03;17.10;;;;;;;;;;4945937;28;20599;-75
2022/06/28 04:47:15;;;;;;;39.70;18.60;;;;;;;;;;4945910;28;20301;-75
2022/06/28 04:49:43;;;;;;;43.40;18.47;;;;;;;;;;4947849;28;20932;-75
2022/06/28 04:52:11;;;;;;;40.63;17.40;;;;;;;;;;4943701;28;20293;-75
2022/06/28 04:54:38;;;;;;;44.33;18.30;;;;;;;;;;4952379;28;20317;-75
2022/06/28 04:57:05;;;;;;;41.27;18.20;;;;;;;;;;4946518;28;20218;-74
2022/06/28 04:59:32;;;;;;;40.63;18.33;;;;;;;;;;4945203;28;20206;-74
2022/06/28 05:02:00;;;;;;;43.37;17.60;;;;;;;;;;4945696;28;20575;-77
2022/06/28 05:04:27;;;;;;;41.33;17.73;;;;;;;;;;4946046;28;20232;-76
2022/06/28 05:06:55;;;;;;;42.47;17.87;;;;;;;;;;4945984;28;20304;-75
2022/06/28 05:09:22;;;;;;;45.63;19.13;;;;;;;;;;4944453;28;20212;-77
2022/06/28 05:11:50;;;;;;;39.13;18.00;;;;;;;;;;4945759;28;20300;-78
2022/06/28 05:14:17;;;;;;;39.57;17.37;;;;;;;;;;4942999;28;20336;-75
2022/06/28 05:16:45;;;;;;;44.17;17.93;;;;;;;;;;4943872;28;20210;-76
2022/06/28 05:19:13;;;;;;;42.20;18.37;;;;;;;;;;4943985;28;20581;-75
2022/06/28 05:21:40;;;;;;;40.00;17.60;;;;;;;;;;4945566;28;20201;-74
2022/06/28 05:24:08;;;;;;;43.27;18.50;;;;;;;;;;4945196;28;20252;-76
2022/06/28 05:26:35;;;;;;;40.90;18.80;;;;;;;;;;4944871;28;20210;-76
2022/06/28 05:29:03;;;;;;;41.60;18.13;;;;;;;;;;4946264;28;20212;-75
2022/06/28 05:31:30;;;;;;;36.57;17.17;;;;;;;;;;4946087;28;20661;-75
2022/06/28 05:33:57;;;;;;;41.27;18.67;;;;;;;;;;4945038;28;20225;-75
2022/06/28 05:36:25;;;;;;;32.67;15.33;;;;;;;;;;4953511;28;20724;-75
2022/06/28 05:38:52;;;;;;;35.23;15.87;;;;;;;;;;4943633;28;20202;-74
2022/06/28 05:41:21;;;;;;;34.07;15.40;;;;;;;;;;4943421;28;20201;-74
2022/06/28 05:43:48;;;;;;;37.10;16.23;;;;;;;;;;4945132;28;20320;-77
2022/06/28 05:46:15;;;;;;;42.57;17.03;;;;;;;;;;4945003;28;20296;-76
2022/06/28 05:48:42;;;;;;;37.60;17.37;;;;;;;;;;4946220;28;20209;-75
2022/06/28 05:51:09;;;;;;;36.47;16.97;;;;;;;;;;4945206;28;20207;-74
2022/06/28 05:53:37;;;;;;;31.97;14.73;;;;;;;;;;4945686;28;20198;-75
2022/06/28 05:56:04;;;;;;;35.23;15.27;;;;;;;;;;4943711;28;20225;-75
2022/06/28 05:58:33;;;;;;;33.00;14.37;;;;;;;;;;4947018;28;20214;-75
2022/06/28 06:01:00;;;;;;;32.27;14.77;;;;;;;;;;4944187;28;20572;-75
2022/06/28 06:03:27;;;;;;;32.37;15.17;;;;;;;;;;4942549;28;20229;-76
2022/06/28 06:05:54;;;;;;;32.43;13.67;;;;;;;;;;4939634;28;20214;-76
2022/06/28 06:08:22;;;;;;;31.37;14.50;;;;;;;;;;4942970;28;20206;-75
2022/06/28 06:10:49;;;;;;;29.80;14.07;;;;;;;;;;4945477;28;20708;-76
2022/06/28 06:13:16;;;;;;;27.97;13.17;;;;;;;;;;4946260;28;20580;-76
2022/06/28 06:15:45;;;;;;;28.13;12.93;;;;;;;;;;4944560;28;20206;-74
2022/06/28 06:18:12;;;;;;;27.67;12.43;;;;;;;;;;4943191;28;20682;-76
2022/06/28 06:20:39;;;;;;;28.17;12.73;;;;;;;;;;4945157;28;20289;-75
2022/06/28 06:23:06;;;;;;;24.17;12.27;;;;;;;;;;4942132;28;20230;-75
2022/06/28 06:25:33;;;;;;;26.70;12.27;;;;;;;;;;4946513;28;20275;-74
2022/06/28 06:28:01;;;;;;;19.83;10.03;;;;;;;;;;4944664;28;20213;-76
2022/06/28 06:30:28;;;;;;;18.10;10.40;;;;;;;;;;4941768;28;20207;-76
2022/06/28 06:32:56;;;;;;;23.47;10.80;;;;;;;;;;4941936;28;20257;-77
2022/06/28 06:35:24;;;;;;;21.73;10.43;;;;;;;;;;4942699;28;20225;-76
2022/06/28 06:37:52;;;;;;;19.50;10.30;;;;;;;;;;4943846;28;20391;-77
2022/06/28 06:40:23;;;;;;;17.20;9.77;;;;;;;;;;4941628;28;20199;-76
2022/06/28 06:42:50;;;;;;;18.53;9.90;;;;;;;;;;4941813;28;20207;-76
2022/06/28 06:45:17;;;;;;;14.30;8.53;;;;;;;;;;4943005;28;20245;-76
2022/06/28 06:47:44;;;;;;;16.13;9.37;;;;;;;;;;4940179;28;20584;-76
2022/06/28 06:50:13;;;;;;;16.73;8.37;;;;;;;;;;4943381;28;20245;-75
2022/06/28 06:52:40;;;;;;;14.93;8.40;;;;;;;;;;4947092;28;20221;-76
2022/06/28 06:55:08;;;;;;;14.23;7.97;;;;;;;;;;4953063;28;20756;-76
2022/06/28 06:57:35;;;;;;;13.37;7.30;;;;;;;;;;4953491;28;20286;-75
2022/06/28 07:00:02;;;;;;;13.37;8.50;;;;;;;;;;4945739;28;20218;-75
2022/06/28 07:02:30;;;;;;;14.30;7.67;;;;;;;;;;4945470;28;20213;-75
2022/06/28 07:04:57;;;;;;;12.83;7.30;;;;;;;;;;4945418;28;20614;-74
2022/06/28 07:07:26;;;;;;;12.57;7.67;;;;;;;;;;4941390;28;20595;-74
2022/06/28 07:09:53;;;;;;;11.93;7.50;;;;;;;;;;4943157;28;20578;-75
2022/06/28 07:12:20;;;;;;;12.80;7.30;;;;;;;;;;4942192;28;20600;-73
2022/06/28 07:14:48;;;;;;;10.77;6.83;;;;;;;;;;4941575;28;20249;-75
2022/06/28 07:17:15;;;;;;;11.77;7.40;;;;;;;;;;4946686;28;20301;-74
2022/06/28 07:19:42;;;;;;;11.50;6.80;;;;;;;;;;4942457;28;20326;-74
2022/06/28 07:22:09;;;;;;;11.53;7.40;;;;;;;;;;4944957;28;20725;-75
2022/06/28 07:24:38;;;;;;;10.77;6.50;;;;;;;;;;4944854;28;20697;-74
2022/06/28 07:27:05;;;;;;;12.67;6.60;;;;;;;;;;4944818;28;20704;-75
2022/06/28 07:29:32;;;;;;;13.40;6.10;;;;;;;;;;4940305;28;20285;-72
2022/06/28 07:32:00;;;;;;;10.03;5.40;;;;;;;;;;4939070;28;20301;-75
2022/06/28 07:34:27;;;;;;;9.95;5.43;;;;;;;;;;4946851;28;20605;-75
2022/06/28 07:36:54;;;;;;;6.53;4.40;;;;;;;;;;4940186;28;20302;-73
2022/06/28 07:39:21;;;;;;;11.40;4.82;;;;;;;;;;4945835;28;20302;-74
2022/06/28 07:41:50;;;;;;;5.93;3.90;;;;;;;;;;4941951;28;20209;-75
2022/06/28 07:44:17;;;;;;;8.02;3.90;;;;;;;;;;4939514;28;20711;-75
2022/06/28 07:46:44;;;;;;;4.78;2.63;;;;;;;;;;4944472;28;20664;-74
2022/06/28 07:49:11;;;;;;;5.30;3.30;;;;;;;;;;4946115;28;20214;-74
2022/06/28 07:54:23;;;;;;;6.75;2.55;;;;;;;;;;4937005;28;20241;-76
2022/06/28 07:56:52;;;;;;;5.45;1.95;;;;;;;;;;4938429;28;20211;-74
2022/06/28 07:59:19;;;;;;;3.55;1.98;;;;;;;;;;4936600;28;20203;-77
2022/06/28 08:01:47;;;;;;;5.80;2.33;;;;;;;;;;4937559;28;20205;-74
2022/06/28 08:04:14;;;;;;;5.27;2.20;;;;;;;;;;4938534;28;20833;-74
2022/06/28 08:06:43;;;;;;;3.07;2.00;;;;;;;;;;4936813;28;20215;-74
2022/06/28 08:09:10;;;;;;;4.87;2.23;;;;;;;;;;4937476;28;20211;-74
2022/06/28 08:11:39;;;;;;;3.43;1.50;;;;;;;;;;4937925;28;20213;-77
2022/06/28 08:14:11;;;;;;;3.17;1.13;;;;;;;;;;4937702;28;20237;-76
2022/06/28 08:16:39;;;;;;;3.50;1.40;;;;;;;;;;4939817;28;20217;-75
2022/06/28 08:19:06;;;;;;;3.30;1.20;;;;;;;;;;4942902;28;20202;-81
2022/06/28 08:21:33;;;;;;;4.27;1.50;;;;;;;;;;4941783;28;20261;-73
2022/06/28 08:24:00;;;;;;;3.80;1.60;;;;;;;;;;4942215;28;20770;-76
2022/06/28 08:26:27;;;;;;;3.53;1.40;;;;;;;;;;4948226;28;20294;-75
2022/06/28 08:28:54;;;;;;;2.40;1.20;;;;;;;;;;4943178;28;20207;-74
2022/06/28 08:31:23;;;;;;;3.53;1.10;;;;;;;;;;4948771;28;20302;-74
2022/06/28 08:33:50;;;;;;;2.80;1.20;;;;;;;;;;4945555;28;20223;-74
2022/06/28 08:36:17;;;;;;;3.80;1.60;;;;;;;;;;4946123;28;20675;-74
2022/06/28 08:38:44;;;;;;;5.30;1.50;;;;;;;;;;4940389;28;20646;-75
2022/06/28 08:41:12;;;;;;;2.40;1.20;;;;;;;;;;4943184;28;20207;-75
2022/06/28 08:43:39;;;;;;;4.33;1.27;;;;;;;;;;4945133;28;20234;-75
2022/06/28 08:46:06;;;;;;;2.70;1.20;;;;;;;;;;4941628;28;20230;-74
2022/06/28 08:48:40;;;;;;;3.03;1.20;;;;;;;;;;4942454;28;20202;-75
2022/06/28 08:51:09;;;;;;;3.67;1.50;;;;;;;;;;4947691;28;20202;-74
2022/06/28 08:53:37;;;;;;;3.00;1.13;;;;;;;;;;4941979;28;20204;-75
2022/06/28 08:56:05;;;;;;;2.83;1.20;;;;;;;;;;4944139;28;20212;-76
2022/06/28 08:58:33;;;;;;;2.90;1.40;;;;;;;;;;4955570;28;20215;-73
2022/06/28 09:01:00;;;;;;;2.80;1.40;;;;;;;;;;4951224;28;20297;-74
2022/06/28 09:03:27;;;;;;;2.70;1.20;;;;;;;;;;4944519;28;20208;-78
2022/06/28 09:05:56;;;;;;;6.53;1.60;;;;;;;;;;4942919;28;20233;-77
2022/06/28 09:08:23;;;;;;;4.03;1.10;;;;;;;;;;4946813;28;20208;-75
2022/06/28 09:10:50;;;;;;;2.17;1.30;;;;;;;;;;4943345;28;20218;-75
2022/06/28 09:13:18;;;;;;;2.97;1.57;;;;;;;;;;4951361;28;20207;-78
2022/06/28 09:15:46;;;;;;;4.00;1.70;;;;;;;;;;4950746;28;20676;-74
2022/06/28 09:18:13;;;;;;;6.27;2.40;;;;;;;;;;4942918;28;20202;-74
2022/06/28 09:20:41;;;;;;;6.50;1.93;;;;;;;;;;4945580;28;20207;-75
2022/06/28 09:23:22;;;;;;;4.10;2.00;;;;;;;;;;4942981;28;20676;-73
2022/06/28 09:25:50;;;;;;;4.93;2.20;;;;;;;;;;4945020;28;20264;-75
2022/06/28 09:28:23;;;;;;;4.10;1.90;;;;;;;;;;4944363;28;20203;-75
2022/06/28 09:30:51;;;;;;;4.73;2.00;;;;;;;;;;4940588;28;20327;-74
2022/06/28 09:33:26;;;;;;;5.90;2.00;;;;;;;;;;4949712;28;20199;-76
2022/06/28 09:35:53;;;;;;;4.27;1.90;;;;;;;;;;4942979;28;20209;-73
2022/06/28 09:38:32;;;;;;;6.33;1.77;;;;;;;;;;4944402;28;20294;-77
2022/06/28 09:40:59;;;;;;;3.40;1.70;;;;;;;;;;4940062;28;20298;-73
2022/06/28 09:43:31;;;;;;;3.90;1.60;;;;;;;;;;4940957;28;20202;-76
2022/06/28 09:45:58;;;;;;;3.90;1.57;;;;;;;;;;4938838;28;20207;-73
2022/06/28 09:48:25;;;;;;;4.17;1.60;;;;;;;;;;4941190;28;20296;-74
2022/06/28 09:50:58;;;;;;;5.23;1.60;;;;;;;;;;4938865;28;20202;-73
2022/06/28 09:53:26;;;;;;;3.17;1.67;;;;;;;;;;4948394;28;20207;-73
2022/06/28 09:55:57;;;;;;;2.17;1.50;;;;;;;;;;4941824;28;20202;-73
2022/06/28 09:58:24;;;;;;;2.90;1.70;;;;;;;;;;4940429;28;20238;-73
2022/06/28 10:00:51;;;;;;;6.97;1.70;;;;;;;;;;4938236;28;20213;-73
2022/06/28 10:03:19;;;;;;;4.97;1.60;;;;;;;;;;4945425;28;20294;-73
2022/06/28 10:05:46;;;;;;;4.17;1.30;;;;;;;;;;4936599;28;20231;-74
2022/06/28 10:08:14;;;;;;;3.53;1.50;;;;;;;;;;4940710;28;20294;-73
2022/06/28 10:10:41;;;;;;;3.37;1.63;;;;;;;;;;4940084;28;20695;-75
2022/06/28 10:15:56;;;;;;;2.70;1.33;;;;;;;;;;4940695;28;20230;-73
2022/06/28 10:18:25;;;;;;;2.37;1.40;;;;;;;;;;4941755;28;20207;-74
2022/06/28 10:20:52;;;;;;;3.67;1.30;;;;;;;;;;4940849;28;20601;-73
2022/06/28 10:23:24;;;;;;;2.23;1.10;;;;;;;;;;4938283;28;20224;-74
2022/06/28 10:26:04;;;;;;;2.00;1.20;;;;;;;;;;4940323;28;20254;-73
2022/06/28 10:28:37;;;;;;;1.93;1.23;;;;;;;;;;4937290;28;20574;-74
2022/06/28 10:31:22;;;;;;;3.70;1.40;;;;;;;;;;4938663;28;20206;-74
2022/06/28 10:33:49;;;;;;;3.10;1.50;;;;;;;;;;4934127;28;20229;-73
2022/06/28 10:36:17;;;;;;;3.73;1.40;;;;;;;;;;4938881;28;20202;-73
2022/06/28 10:38:59;;;;;;;4.07;1.50;;;;;;;;;;4937272;28;20646;-74
2022/06/28 10:41:36;;;;;;;3.33;1.10;;;;;;;;;;4937647;28;20203;-75
2022/06/28 10:44:09;;;;;;;3.40;1.30;;;;;;;;;;4937879;28;20587;-73
2022/06/28 10:46:37;;;;;;;2.13;1.33;;;;;;;;;;4941075;28;20203;-73
2022/06/28 10:49:06;;;;;;;2.07;1.07;;;;;;;;;;4940602;28;20237;-74
2022/06/28 10:51:34;;;;;;;1.80;1.10;;;;;;;;;;4938520;28;20203;-73
2022/06/28 10:54:06;;;;;;;2.40;1.03;;;;;;;;;;4937302;28;20610;-73
2022/06/28 10:56:37;;;;;;;3.83;1.00;;;;;;;;;;4941671;28;20203;-73
2022/06/28 10:59:05;;;;;;;2.93;1.20;;;;;;;;;;4933896;28;20327;-74
2022/06/28 11:01:51;;;;;;;4.90;1.20;;;;;;;;;;4941961;28;20739;-76
2022/06/28 11:04:24;;;;;;;2.50;1.30;;;;;;;;;;4938180;28;20234;-73
2022/06/28 11:06:53;;;;;;;2.43;1.27;;;;;;;;;;4939364;28;20787;-73
2022/06/28 11:09:25;;;;;;;3.00;1.07;;;;;;;;;;4937946;28;20287;-72
2022/06/28 11:12:11;;;;;;;4.20;1.30;;;;;;;;;;4933544;28;20211;-73
2022/06/28 11:14:52;;;;;;;3.30;1.20;;;;;;;;;;4941661;28;20270;-72
2022/06/28 11:17:20;;;;;;;3.03;1.30;;;;;;;;;;4940960;28;20208;-75
2022/06/28 11:19:53;;;;;;;5.57;1.70;;;;;;;;;;4940327;28;20210;-74
2022/06/28 11:22:24;;;;;;;4.67;1.33;;;;;;;;;;4934107;28;20200;-73
2022/06/28 11:24:51;;;;;;;3.20;1.00;;;;;;;;;;4938262;28;20232;-76
2022/06/28 11:27:21;;;;;;;4.13;1.00;;;;;;;;;;4940943;28;20301;-73
2022/06/28 11:29:49;;;;;;;3.30;1.20;;;;;;;;;;4938638;28;20267;-74
2022/06/28 11:32:17;;;;;;;3.87;1.30;;;;;;;;;;4935605;28;20213;-74
2022/06/28 11:34:44;;;;;;;4.87;1.10;;;;;;;;;;4939711;28;20228;-74
2022/06/28 11:37:12;;;;;;;3.23;1.37;;;;;;;;;;4936244;28;22177;-76
2022/06/28 11:39:41;;;;;;;1.83;1.10;;;;;;;;;;4937636;28;20308;-75
2022/06/28 11:42:08;;;;;;;4.47;1.10;;;;;;;;;;4937148;28;20246;-75
2022/06/28 11:44:36;;;;;;;2.77;1.17;;;;;;;;;;4938512;28;20250;-75
2022/06/28 11:47:03;;;;;;;2.53;1.00;;;;;;;;;;4933782;28;20211;-74
2022/06/28 11:49:31;;;;;;;2.47;1.23;;;;;;;;;;4934255;28;20203;-74
2022/06/28 11:51:58;;;;;;;2.03;0.83;;;;;;;;;;4934233;28;20659;-76
2022/06/28 11:54:27;;;;;;;4.13;1.30;;;;;;;;;;4933702;28;20326;-74
2022/06/28 11:56:54;;;;;;;2.43;1.23;;;;;;;;;;4940971;28;20298;-76
2022/06/28 11:59:22;;;;;;;4.70;1.13;;;;;;;;;;4950562;28;20221;-73
2022/06/28 12:01:49;;;;;;;2.70;1.07;;;;;;;;;;4941610;28;20206;-73
2022/06/28 12:04:21;;;;;;;3.03;1.10;;;;;;;;;;4938782;28;20227;-72
2022/06/28 12:06:49;;;;;;;5.57;1.20;;;;;;;;;;4940068;28;20686;-74
2022/06/28 12:09:16;;;;;;;2.13;0.93;;;;;;;;;;4942711;28;20212;-74
2022/06/28 12:11:47;;;;;;;3.43;1.00;;;;;;;;;;4937895;28;20211;-74
2022/06/28 12:14:15;;;;;;;2.13;1.20;;;;;;;;;;4934618;28;20449;-74
2022/06/28 12:16:44;;;;;;;2.60;1.27;;;;;;;;;;4937157;28;20253;-75
2022/06/28 12:19:14;;;;;;;3.87;1.10;;;;;;;;;;4939838;28;20293;-74
2022/06/28 12:21:58;;;;;;;2.67;1.00;;;;;;;;;;4938912;28;20209;-73
2022/06/28 12:24:37;;;;;;;4.07;1.10;;;;;;;;;;4940101;28;20236;-76
2022/06/28 12:27:06;;;;;;;5.57;1.20;;;;;;;;;;4937624;28;20204;-73
2022/06/28 12:29:33;;;;;;;1.93;1.20;;;;;;;;;;4939753;28;20223;-74
2022/06/28 12:32:01;;;;;;;1.97;1.07;;;;;;;;;;4937534;28;20217;-74
2022/06/28 12:34:28;;;;;;;1.47;0.90;;;;;;;;;;4944060;28;20235;-74
2022/06/28 12:36:55;;;;;;;4.90;1.20;;;;;;;;;;4942836;28;20306;-77
2022/06/28 12:39:22;;;;;;;5.93;1.10;;;;;;;;;;4936458;28;20295;-76
2022/06/28 12:41:50;;;;;;;3.00;0.90;;;;;;;;;;4942949;28;20305;-76
2022/06/28 12:44:19;;;;;;;1.83;0.90;;;;;;;;;;4937605;28;20227;-73
2022/06/28 12:46:47;;;;;;;1.67;0.90;;;;;;;;;;4935676;28;20256;-72
2022/06/28 12:49:14;;;;;;;2.83;1.10;;;;;;;;;;4940723;28;20226;-75
2022/06/28 12:51:41;;;;;;;2.17;1.00;;;;;;;;;;4941421;28;20214;-73
2022/06/28 12:54:08;;;;;;;2.57;1.00;;;;;;;;;;4941164;28;20333;-76
2022/06/28 12:56:35;;;;;;;2.67;1.13;;;;;;;;;;4937594;28;20211;-73
2022/06/28 12:59:03;;;;;;;3.60;1.10;;;;;;;;;;4941038;28;20213;-74
2022/06/28 13:01:31;;;;;;;2.07;1.10;;;;;;;;;;4944167;28;20208;-74
2022/06/28 13:03:59;;;;;;;2.23;1.03;;;;;;;;;;4951318;28;20235;-76
2022/06/28 13:06:26;;;;;;;2.57;1.10;;;;;;;;;;4948975;28;20330;-74
2022/06/28 13:08:53;;;;;;;2.93;1.20;;;;;;;;;;4942683;28;20219;-73
2022/06/28 13:11:22;;;;;;;2.03;1.10;;;;;;;;;;4943457;28;20221;-74
2022/06/28 13:13:50;;;;;;;1.43;0.93;;;;;;;;;;4936312;28;20608;-73
2022/06/28 13:16:17;;;;;;;1.80;0.87;;;;;;;;;;4941797;28;20213;-74
2022/06/28 13:18:46;;;;;;;2.40;1.00;;;;;;;;;;4938284;28;20291;-73
2022/06/28 13:21:13;;;;;;;3.07;1.00;;;;;;;;;;4937773;28;20284;-74
2022/06/28 13:23:40;;;;;;;1.60;1.00;;;;;;;;;;4935429;28;20242;-73
2022/06/28 13:26:08;;;;;;;2.53;1.07;;;;;;;;;;4942807;28;20976;-73
2022/06/28 13:28:35;;;;;;;4.30;1.00;;;;;;;;;;4945693;28;20209;-74
2022/06/28 13:31:02;;;;;;;2.00;1.20;;;;;;;;;;4947105;28;20206;-74
2022/06/28 13:33:29;;;;;;;3.33;1.23;;;;;;;;;;4945375;28;20219;-75
2022/06/28 13:35:58;;;;;;;2.47;1.07;;;;;;;;;;4948848;28;20218;-74
2022/06/28 13:38:25;;;;;;;2.30;1.17;;;;;;;;;;4945691;28;20608;-72
2022/06/28 13:40:55;;;;;;;3.13;1.00;;;;;;;;;;4946072;28;20289;-74
2022/06/28 13:43:34;;;;;;;2.73;1.40;;;;;;;;;;4945244;28;20209;-75
2022/06/28 13:46:02;;;;;;;1.83;1.30;;;;;;;;;;4944161;28;20587;-76
2022/06/28 13:48:29;;;;;;;1.27;1.10;;;;;;;;;;4939044;28;20224;-73
2022/06/28 13:50:58;;;;;;;3.83;1.10;;;;;;;;;;4942441;28;20207;-73
2022/06/28 13:53:26;;;;;;;1.87;1.03;;;;;;;;;;4940260;28;20217;-73
2022/06/28 13:55:53;;;;;;;2.73;1.10;;;;;;;;;;4940478;28;20224;-74
2022/06/28 13:58:20;;;;;;;3.90;1.13;;;;;;;;;;4938071;28;20347;-74
2022/06/28 14:00:48;;;;;;;1.13;0.90;;;;;;;;;;4938811;28;20261;-73
2022/06/28 14:03:15;;;;;;;3.20;1.10;;;;;;;;;;4937824;28;20678;-74
2022/06/28 14:05:45;;;;;;;1.80;1.03;;;;;;;;;;4941662;28;20238;-75
2022/06/28 14:08:13;;;;;;;2.03;1.00;;;;;;;;;;4944778;28;20256;-73
2022/06/28 14:10:41;;;;;;;5.70;1.20;;;;;;;;;;4946621;28;20212;-75
2022/06/28 14:13:08;;;;;;;2.80;1.07;;;;;;;;;;4942155;28;20208;-73
2022/06/28 14:15:35;;;;;;;3.30;0.90;;;;;;;;;;4936552;28;20317;-73
2022/06/28 14:18:03;;;;;;;2.87;1.03;;;;;;;;;;4941428;28;20216;-75
2022/06/28 14:20:30;;;;;;;2.77;1.03;;;;;;;;;;4948941;28;20310;-72
2022/06/28 14:23:01;;;;;;;1.83;1.00;;;;;;;;;;4944444;28;20206;-73
2022/06/28 14:25:29;;;;;;;1.40;1.10;;;;;;;;;;4943596;28;20231;-73
2022/06/28 14:27:56;;;;;;;3.50;1.10;;;;;;;;;;4941487;28;20206;-72
2022/06/28 14:30:23;;;;;;;3.00;1.10;;;;;;;;;;4942956;28;20216;-74
2022/06/28 14:32:51;;;;;;;2.33;1.00;;;;;;;;;;4943353;28;20204;-73
2022/06/28 14:35:18;;;;;;;2.13;1.20;;;;;;;;;;4938957;28;20324;-75
2022/06/28 14:37:45;;;;;;;3.00;1.10;;;;;;;;;;4942379;28;20216;-73
2022/06/28 14:40:12;;;;;;;3.60;1.03;;;;;;;;;;4940866;28;20213;-75
2022/06/28 14:42:41;;;;;;;2.77;0.97;;;;;;;;;;4940229;28;20217;-77
2022/06/28 14:45:09;;;;;;;2.60;1.40;;;;;;;;;;4939489;28;20324;-77
2022/06/28 14:47:40;;;;;;;2.33;1.20;;;;;;;;;;4945423;28;20206;-73
2022/06/28 14:50:08;;;;;;;2.70;1.00;;;;;;;;;;4940458;28;20754;-74
2022/06/28 14:52:35;;;;;;;1.50;0.90;;;;;;;;;;4942829;28;20217;-74